sensor_id;sensor_type;location;lat;lon;timestamp;temperature;humidity
46378;DHT22;32083;47.360;9.650;2023-03-23T00:01:13;10.40;99.90
46378;DHT22;32083;47.360;9.650;2023-03-23T00:03:42;10.10;99.90
46378;DHT22;32083;47.360;9.650;2023-03-23T00:06:08;10.10;99.90
46378;DHT22;32083;47.360;9.650;2023-03-23T00:08:36;10.10;99.90
46378;DHT22;32083;47.360;9.650;2023-03-23T00:11:04;10.10;99.90
46378;DHT22;32083;47.360;9.650;2023-03-23T00:13:30;10.10;99.90
46378;DHT22;32083;47.360;9.650;2023-03-23T00:15:56;10.10;99.90
46378;DHT22;32083;47.360;9.650;2023-03-23T00:18:23;10.20;99.90
46378;DHT22;32083;47.360;9.650;2023-03-23T00:20:56;10.20;99.90
46378;DHT22;32083;47.360;9.650;2023-03-23T00:23:24;10.10;99.90
46378;DHT22;32083;47.360;9.650;2023-03-23T00:25:52;10.10;99.90
46378;DHT22;32083;47.360;9.650;2023-03-23T00:28:20;10.00;99.90
46378;DHT22;32083;47.360;9.650;2023-03-23T00:31:07;10.00;99.90
46378;DHT22;32083;47.360;9.650;2023-03-23T00:33:36;10.00;99.90
46378;DHT22;32083;47.360;9.650;2023-03-23T00:36:07;10.00;99.90
46378;DHT22;32083;47.360;9.650;2023-03-23T00:38:34;9.90;99.90
46378;DHT22;32083;47.360;9.650;2023-03-23T00:40:59;9.90;99.90
46378;DHT22;32083;47.360;9.650;2023-03-23T00:43:28;9.80;99.90
46378;DHT22;32083;47.360;9.650;2023-03-23T00:45:55;9.80;99.90
46378;DHT22;32083;47.360;9.650;2023-03-23T00:48:24;9.70;99.90
46378;DHT22;32083;47.360;9.650;2023-03-23T00:50:51;9.80;99.90
46378;DHT22;32083;47.360;9.650;2023-03-23T00:53:17;9.70;99.90
46378;DHT22;32083;47.360;9.650;2023-03-23T00:55:47;9.70;99.90
46378;DHT22;32083;47.360;9.650;2023-03-23T00:58:14;9.70;99.90
46378;DHT22;32083;47.360;9.650;2023-03-23T01:00:41;9.70;99.90
46378;DHT22;32083;47.360;9.650;2023-03-23T01:03:08;9.60;99.90
46378;DHT22;32083;47.360;9.650;2023-03-23T01:05:38;9.60;99.90
46378;DHT22;32083;47.360;9.650;2023-03-23T01:08:05;9.60;99.90
46378;DHT22;32083;47.360;9.650;2023-03-23T01:10:32;9.60;99.90
46378;DHT22;32083;47.360;9.650;2023-03-23T01:13:01;9.60;99.90
46378;DHT22;32083;47.360;9.650;2023-03-23T01:15:28;9.50;99.90
46378;DHT22;32083;47.360;9.650;2023-03-23T01:17:55;9.60;99.90
46378;DHT22;32083;47.360;9.650;2023-03-23T01:20:21;9.50;99.90
46378;DHT22;32083;47.360;9.650;2023-03-23T01:22:47;9.50;99.90
46378;DHT22;32083;47.360;9.650;2023-03-23T01:25:13;9.40;99.90
46378;DHT22;32083;47.360;9.650;2023-03-23T01:27:40;9.30;99.90
46378;DHT22;32083;47.360;9.650;2023-03-23T01:30:07;9.30;99.90
46378;DHT22;32083;47.360;9.650;2023-03-23T01:32:33;9.30;99.90
46378;DHT22;32083;47.360;9.650;2023-03-23T01:34:59;9.30;99.90
46378;DHT22;32083;47.360;9.650;2023-03-23T01:37:25;9.30;99.90
46378;DHT22;32083;47.360;9.650;2023-03-23T01:39:58;9.30;99.90
46378;DHT22;32083;47.360;9.650;2023-03-23T01:42:31;9.30;99.90
46378;DHT22;32083;47.360;9.650;2023-03-23T01:48:16;9.20;99.90
46378;DHT22;32083;47.360;9.650;2023-03-23T01:51:01;9.20;99.90
46378;DHT22;32083;47.360;9.650;2023-03-23T01:53:42;9.20;99.90
46378;DHT22;32083;47.360;9.650;2023-03-23T01:56:09;9.10;99.90
46378;DHT22;32083;47.360;9.650;2023-03-23T01:58:38;9.10;99.90
46378;DHT22;32083;47.360;9.650;2023-03-23T02:01:07;9.00;99.90
46378;DHT22;32083;47.360;9.650;2023-03-23T02:03:38;8.90;99.90
46378;DHT22;32083;47.360;9.650;2023-03-23T02:06:05;8.90;99.90
46378;DHT22;32083;47.360;9.650;2023-03-23T02:08:32;8.90;99.90
46378;DHT22;32083;47.360;9.650;2023-03-23T02:10:59;9.00;99.90
46378;DHT22;32083;47.360;9.650;2023-03-23T02:13:26;8.90;99.90
46378;DHT22;32083;47.360;9.650;2023-03-23T02:21:44;8.90;99.90
46378;DHT22;32083;47.360;9.650;2023-03-23T02:34:56;8.90;99.90
46378;DHT22;32083;47.360;9.650;2023-03-23T02:37:52;8.90;99.90
46378;DHT22;32083;47.360;9.650;2023-03-23T02:40:41;9.00;99.90
46378;DHT22;32083;47.360;9.650;2023-03-23T02:43:11;9.00;99.90
46378;DHT22;32083;47.360;9.650;2023-03-23T02:45:40;9.00;99.90
46378;DHT22;32083;47.360;9.650;2023-03-23T02:48:09;9.00;99.90
46378;DHT22;32083;47.360;9.650;2023-03-23T02:50:37;9.00;99.90
46378;DHT22;32083;47.360;9.650;2023-03-23T02:53:07;8.90;99.90
46378;DHT22;32083;47.360;9.650;2023-03-23T02:55:34;9.00;99.90
46378;DHT22;32083;47.360;9.650;2023-03-23T02:58:05;8.90;99.90
46378;DHT22;32083;47.360;9.650;2023-03-23T03:00:31;8.90;99.90
46378;DHT22;32083;47.360;9.650;2023-03-23T03:02:57;8.90;99.90
46378;DHT22;32083;47.360;9.650;2023-03-23T03:10:57;9.00;99.90
46378;DHT22;32083;47.360;9.650;2023-03-23T03:13:32;9.00;99.90
46378;DHT22;32083;47.360;9.650;2023-03-23T03:16:16;9.10;99.90
46378;DHT22;32083;47.360;9.650;2023-03-23T03:21:19;9.30;99.90
46378;DHT22;32083;47.360;9.650;2023-03-23T03:23:54;9.40;99.90
46378;DHT22;32083;47.360;9.650;2023-03-23T03:26:21;9.50;99.90
46378;DHT22;32083;47.360;9.650;2023-03-23T03:28:53;9.60;99.90
46378;DHT22;32083;47.360;9.650;2023-03-23T03:31:26;9.60;99.90
46378;DHT22;32083;47.360;9.650;2023-03-23T03:33:53;9.60;99.90
46378;DHT22;32083;47.360;9.650;2023-03-23T03:36:22;9.60;99.90
46378;DHT22;32083;47.360;9.650;2023-03-23T03:38:50;9.70;99.90
46378;DHT22;32083;47.360;9.650;2023-03-23T03:41:17;9.60;99.90
46378;DHT22;32083;47.360;9.650;2023-03-23T03:43:43;9.70;99.90
46378;DHT22;32083;47.360;9.650;2023-03-23T03:46:08;9.60;99.90
46378;DHT22;32083;47.360;9.650;2023-03-23T03:48:34;9.70;99.90
46378;DHT22;32083;47.360;9.650;2023-03-23T03:51:00;9.80;99.90
46378;DHT22;32083;47.360;9.650;2023-03-23T03:53:27;9.80;99.90
46378;DHT22;32083;47.360;9.650;2023-03-23T03:55:53;9.80;99.90
46378;DHT22;32083;47.360;9.650;2023-03-23T03:58:25;9.80;99.90
46378;DHT22;32083;47.360;9.650;2023-03-23T04:00:57;9.80;99.90
46378;DHT22;32083;47.360;9.650;2023-03-23T04:03:24;9.90;99.90
46378;DHT22;32083;47.360;9.650;2023-03-23T04:05:51;9.90;99.90
46378;DHT22;32083;47.360;9.650;2023-03-23T04:08:16;9.80;99.90
46378;DHT22;32083;47.360;9.650;2023-03-23T04:10:43;9.80;99.90
46378;DHT22;32083;47.360;9.650;2023-03-23T04:13:09;9.80;99.90
46378;DHT22;32083;47.360;9.650;2023-03-23T04:15:35;9.80;99.90
46378;DHT22;32083;47.360;9.650;2023-03-23T04:18:00;9.80;99.90
46378;DHT22;32083;47.360;9.650;2023-03-23T04:20:26;9.90;99.90
46378;DHT22;32083;47.360;9.650;2023-03-23T04:22:52;10.00;99.90
46378;DHT22;32083;47.360;9.650;2023-03-23T04:25:20;10.10;99.90
46378;DHT22;32083;47.360;9.650;2023-03-23T04:27:50;10.10;99.90
46378;DHT22;32083;47.360;9.650;2023-03-23T04:30:22;10.10;99.90
46378;DHT22;32083;47.360;9.650;2023-03-23T04:32:49;10.00;99.90
46378;DHT22;32083;47.360;9.650;2023-03-23T04:35:18;9.90;99.90
46378;DHT22;32083;47.360;9.650;2023-03-23T04:37:45;9.80;99.90
46378;DHT22;32083;47.360;9.650;2023-03-23T04:40:12;9.80;99.90
46378;DHT22;32083;47.360;9.650;2023-03-23T04:42:43;9.90;99.90
46378;DHT22;32083;47.360;9.650;2023-03-23T04:45:15;9.90;99.90
46378;DHT22;32083;47.360;9.650;2023-03-23T04:47:41;9.90;99.90
46378;DHT22;32083;47.360;9.650;2023-03-23T04:50:12;10.00;99.90
46378;DHT22;32083;47.360;9.650;2023-03-23T04:52:39;10.10;99.90
46378;DHT22;32083;47.360;9.650;2023-03-23T04:55:10;10.20;99.90
46378;DHT22;32083;47.360;9.650;2023-03-23T04:57:36;10.30;99.90
46378;DHT22;32083;47.360;9.650;2023-03-23T05:00:03;10.40;99.90
46378;DHT22;32083;47.360;9.650;2023-03-23T05:02:35;10.40;99.90
46378;DHT22;32083;47.360;9.650;2023-03-23T05:05:01;10.50;99.90
46378;DHT22;32083;47.360;9.650;2023-03-23T05:07:26;10.50;99.90
46378;DHT22;32083;47.360;9.650;2023-03-23T05:09:53;10.50;99.90
46378;DHT22;32083;47.360;9.650;2023-03-23T05:12:19;10.60;99.90
46378;DHT22;32083;47.360;9.650;2023-03-23T05:14:44;10.60;99.90
46378;DHT22;32083;47.360;9.650;2023-03-23T05:17:10;10.60;99.90
46378;DHT22;32083;47.360;9.650;2023-03-23T05:19:38;10.70;99.90
46378;DHT22;32083;47.360;9.650;2023-03-23T05:22:03;10.70;99.90
46378;DHT22;32083;47.360;9.650;2023-03-23T05:24:32;10.70;99.90
46378;DHT22;32083;47.360;9.650;2023-03-23T05:26:59;10.70;99.90
46378;DHT22;32083;47.360;9.650;2023-03-23T05:29:25;10.70;99.90
46378;DHT22;32083;47.360;9.650;2023-03-23T05:31:52;10.70;99.90
46378;DHT22;32083;47.360;9.650;2023-03-23T05:34:19;10.70;99.60
46378;DHT22;32083;47.360;9.650;2023-03-23T05:36:45;10.80;99.70
46378;DHT22;32083;47.360;9.650;2023-03-23T05:39:12;10.80;99.70
46378;DHT22;32083;47.360;9.650;2023-03-23T05:41:38;10.80;99.60
46378;DHT22;32083;47.360;9.650;2023-03-23T05:44:04;10.80;99.70
46378;DHT22;32083;47.360;9.650;2023-03-23T05:46:30;10.90;99.90
46378;DHT22;32083;47.360;9.650;2023-03-23T05:48:56;10.80;99.80
46378;DHT22;32083;47.360;9.650;2023-03-23T05:51:22;10.80;99.90
46378;DHT22;32083;47.360;9.650;2023-03-23T05:53:48;10.80;99.90
46378;DHT22;32083;47.360;9.650;2023-03-23T05:56:14;10.80;99.90
46378;DHT22;32083;47.360;9.650;2023-03-23T05:58:40;10.90;99.70
46378;DHT22;32083;47.360;9.650;2023-03-23T06:01:06;10.90;99.90
46378;DHT22;32083;47.360;9.650;2023-03-23T06:03:32;10.90;99.80
46378;DHT22;32083;47.360;9.650;2023-03-23T06:05:58;10.90;99.90
46378;DHT22;32083;47.360;9.650;2023-03-23T06:08:24;10.90;99.90
46378;DHT22;32083;47.360;9.650;2023-03-23T06:10:50;11.00;99.90
46378;DHT22;32083;47.360;9.650;2023-03-23T06:13:16;11.00;99.90
46378;DHT22;32083;47.360;9.650;2023-03-23T06:15:41;11.00;99.80
46378;DHT22;32083;47.360;9.650;2023-03-23T06:18:09;11.10;99.70
46378;DHT22;32083;47.360;9.650;2023-03-23T06:20:35;11.10;99.70
46378;DHT22;32083;47.360;9.650;2023-03-23T06:23:01;11.10;99.60
46378;DHT22;32083;47.360;9.650;2023-03-23T06:25:29;11.20;99.90
46378;DHT22;32083;47.360;9.650;2023-03-23T06:27:55;11.20;98.90
46378;DHT22;32083;47.360;9.650;2023-03-23T06:30:20;11.30;99.10
46378;DHT22;32083;47.360;9.650;2023-03-23T06:32:46;11.40;98.80
46378;DHT22;32083;47.360;9.650;2023-03-23T06:35:14;11.40;98.90
46378;DHT22;32083;47.360;9.650;2023-03-23T06:37:50;11.50;99.40
46378;DHT22;32083;47.360;9.650;2023-03-23T06:40:18;11.50;99.90
46378;DHT22;32083;47.360;9.650;2023-03-23T06:42:46;11.50;99.90
46378;DHT22;32083;47.360;9.650;2023-03-23T06:45:12;11.50;99.90
46378;DHT22;32083;47.360;9.650;2023-03-23T06:47:39;11.50;99.90
46378;DHT22;32083;47.360;9.650;2023-03-23T06:50:07;11.50;99.90
46378;DHT22;32083;47.360;9.650;2023-03-23T06:52:33;11.60;99.30
46378;DHT22;32083;47.360;9.650;2023-03-23T06:54:59;11.60;99.60
46378;DHT22;32083;47.360;9.650;2023-03-23T06:57:25;11.70;99.30
46378;DHT22;32083;47.360;9.650;2023-03-23T06:59:53;11.70;99.20
46378;DHT22;32083;47.360;9.650;2023-03-23T07:02:18;11.80;99.10
46378;DHT22;32083;47.360;9.650;2023-03-23T07:04:44;11.80;99.10
46378;DHT22;32083;47.360;9.650;2023-03-23T07:07:11;11.90;99.00
46378;DHT22;32083;47.360;9.650;2023-03-23T07:09:40;12.00;99.00
46378;DHT22;32083;47.360;9.650;2023-03-23T07:12:07;12.10;98.90
46378;DHT22;32083;47.360;9.650;2023-03-23T07:14:33;12.10;98.80
46378;DHT22;32083;47.360;9.650;2023-03-23T07:16:59;12.20;98.40
46378;DHT22;32083;47.360;9.650;2023-03-23T07:19:26;12.20;98.60
46378;DHT22;32083;47.360;9.650;2023-03-23T07:21:52;12.30;97.60
46378;DHT22;32083;47.360;9.650;2023-03-23T07:24:17;12.30;97.80
46378;DHT22;32083;47.360;9.650;2023-03-23T07:26:44;12.30;98.60
46378;DHT22;32083;47.360;9.650;2023-03-23T07:29:10;12.40;98.10
46378;DHT22;32083;47.360;9.650;2023-03-23T07:31:36;12.50;97.80
46378;DHT22;32083;47.360;9.650;2023-03-23T07:34:03;12.60;97.60
46378;DHT22;32083;47.360;9.650;2023-03-23T07:36:29;12.70;97.20
46378;DHT22;32083;47.360;9.650;2023-03-23T07:38:56;12.80;96.90
46378;DHT22;32083;47.360;9.650;2023-03-23T07:41:22;12.90;95.80
46378;DHT22;32083;47.360;9.650;2023-03-23T07:43:48;13.00;96.40
46378;DHT22;32083;47.360;9.650;2023-03-23T07:46:14;13.10;96.30
46378;DHT22;32083;47.360;9.650;2023-03-23T07:48:41;13.20;96.30
46378;DHT22;32083;47.360;9.650;2023-03-23T07:51:08;13.20;96.20
46378;DHT22;32083;47.360;9.650;2023-03-23T07:53:34;13.40;96.60
46378;DHT22;32083;47.360;9.650;2023-03-23T07:56:00;13.40;96.10
46378;DHT22;32083;47.360;9.650;2023-03-23T07:58:27;13.60;95.20
46378;DHT22;32083;47.360;9.650;2023-03-23T08:00:53;13.80;95.10
46378;DHT22;32083;47.360;9.650;2023-03-23T08:03:22;13.90;94.70
46378;DHT22;32083;47.360;9.650;2023-03-23T08:05:48;14.00;93.70
46378;DHT22;32083;47.360;9.650;2023-03-23T08:08:14;14.10;95.00
46378;DHT22;32083;47.360;9.650;2023-03-23T08:10:40;14.10;94.10
46378;DHT22;32083;47.360;9.650;2023-03-23T08:13:06;14.20;92.90
46378;DHT22;32083;47.360;9.650;2023-03-23T08:15:32;14.30;92.60
46378;DHT22;32083;47.360;9.650;2023-03-23T08:18:03;14.40;92.70
46378;DHT22;32083;47.360;9.650;2023-03-23T08:20:28;14.40;92.50
46378;DHT22;32083;47.360;9.650;2023-03-23T08:22:56;14.40;94.60
46378;DHT22;32083;47.360;9.650;2023-03-23T08:25:23;14.20;96.00
46378;DHT22;32083;47.360;9.650;2023-03-23T08:27:52;14.10;96.60
46378;DHT22;32083;47.360;9.650;2023-03-23T08:30:20;14.00;97.00
46378;DHT22;32083;47.360;9.650;2023-03-23T08:32:48;14.10;97.60
46378;DHT22;32083;47.360;9.650;2023-03-23T08:35:15;14.20;97.30
46378;DHT22;32083;47.360;9.650;2023-03-23T08:37:42;14.30;97.00
46378;DHT22;32083;47.360;9.650;2023-03-23T08:40:10;14.40;96.60
46378;DHT22;32083;47.360;9.650;2023-03-23T08:42:38;14.50;96.30
46378;DHT22;32083;47.360;9.650;2023-03-23T08:45:06;14.60;96.00
46378;DHT22;32083;47.360;9.650;2023-03-23T08:47:34;14.70;95.70
46378;DHT22;32083;47.360;9.650;2023-03-23T08:50:01;14.60;96.20
46378;DHT22;32083;47.360;9.650;2023-03-23T08:52:28;14.70;95.40
46378;DHT22;32083;47.360;9.650;2023-03-23T08:54:54;14.80;95.00
46378;DHT22;32083;47.360;9.650;2023-03-23T08:57:20;14.90;94.80
46378;DHT22;32083;47.360;9.650;2023-03-23T08:59:46;15.00;94.70
46378;DHT22;32083;47.360;9.650;2023-03-23T09:02:13;15.10;95.10
46378;DHT22;32083;47.360;9.650;2023-03-23T09:04:39;15.20;94.90
46378;DHT22;32083;47.360;9.650;2023-03-23T09:07:09;15.20;93.20
46378;DHT22;32083;47.360;9.650;2023-03-23T09:09:36;15.30;93.20
46378;DHT22;32083;47.360;9.650;2023-03-23T09:12:05;15.40;93.80
46378;DHT22;32083;47.360;9.650;2023-03-23T09:14:32;15.40;93.90
46378;DHT22;32083;47.360;9.650;2023-03-23T09:16:57;15.50;93.40
46378;DHT22;32083;47.360;9.650;2023-03-23T09:19:23;15.50;93.70
46378;DHT22;32083;47.360;9.650;2023-03-23T09:21:49;15.60;93.80
46378;DHT22;32083;47.360;9.650;2023-03-23T09:24:16;15.50;93.20
46378;DHT22;32083;47.360;9.650;2023-03-23T09:26:42;15.40;94.20
46378;DHT22;32083;47.360;9.650;2023-03-23T09:29:08;15.40;93.90
46378;DHT22;32083;47.360;9.650;2023-03-23T09:31:34;15.30;93.10
46378;DHT22;32083;47.360;9.650;2023-03-23T09:34:02;15.30;93.50
46378;DHT22;32083;47.360;9.650;2023-03-23T09:36:29;15.40;93.70
46378;DHT22;32083;47.360;9.650;2023-03-23T09:38:56;15.50;92.80
46378;DHT22;32083;47.360;9.650;2023-03-23T09:50:17;15.50;93.90
46378;DHT22;32083;47.360;9.650;2023-03-23T09:52:57;15.50;94.10
46378;DHT22;32083;47.360;9.650;2023-03-23T09:55:24;15.50;93.50
46378;DHT22;32083;47.360;9.650;2023-03-23T10:00:37;15.50;93.60
46378;DHT22;32083;47.360;9.650;2023-03-23T10:05:51;15.70;92.70
46378;DHT22;32083;47.360;9.650;2023-03-23T10:08:20;16.00;92.70
46378;DHT22;32083;47.360;9.650;2023-03-23T10:11:24;16.10;91.70
46378;DHT22;32083;47.360;9.650;2023-03-23T10:16:40;16.30;92.20
46378;DHT22;32083;47.360;9.650;2023-03-23T10:19:17;16.40;90.80
46378;DHT22;32083;47.360;9.650;2023-03-23T10:21:51;16.50;90.60
46378;DHT22;32083;47.360;9.650;2023-03-23T10:24:22;16.50;90.40
46378;DHT22;32083;47.360;9.650;2023-03-23T10:29:19;16.60;88.00
46378;DHT22;32083;47.360;9.650;2023-03-23T10:31:51;16.60;86.70
46378;DHT22;32083;47.360;9.650;2023-03-23T10:34:24;16.70;88.80
46378;DHT22;32083;47.360;9.650;2023-03-23T10:37:13;16.80;88.50
46378;DHT22;32083;47.360;9.650;2023-03-23T10:39:55;16.90;88.70
46378;DHT22;32083;47.360;9.650;2023-03-23T10:42:28;16.90;86.60
46378;DHT22;32083;47.360;9.650;2023-03-23T10:44:56;17.10;87.20
46378;DHT22;32083;47.360;9.650;2023-03-23T10:47:22;17.10;84.90
46378;DHT22;32083;47.360;9.650;2023-03-23T10:49:56;17.20;85.20
46378;DHT22;32083;47.360;9.650;2023-03-23T10:57:32;17.40;84.50
46378;DHT22;32083;47.360;9.650;2023-03-23T11:03:03;17.50;81.80
46378;DHT22;32083;47.360;9.650;2023-03-23T11:05:42;17.50;81.50
46378;DHT22;32083;47.360;9.650;2023-03-23T11:08:23;17.50;81.90
46378;DHT22;32083;47.360;9.650;2023-03-23T11:13:22;17.70;81.10
46378;DHT22;32083;47.360;9.650;2023-03-23T11:15:49;17.80;80.70
46378;DHT22;32083;47.360;9.650;2023-03-23T11:20:55;17.90;78.40
46378;DHT22;32083;47.360;9.650;2023-03-23T11:23:32;18.00;77.90
46378;DHT22;32083;47.360;9.650;2023-03-23T11:26:23;18.00;75.90
46378;DHT22;32083;47.360;9.650;2023-03-23T11:29:02;18.00;75.60
46378;DHT22;32083;47.360;9.650;2023-03-23T11:31:42;18.10;76.00
46378;DHT22;32083;47.360;9.650;2023-03-23T11:35:03;18.20;76.10
46378;DHT22;32083;47.360;9.650;2023-03-23T11:37:18;18.30;73.40
46378;DHT22;32083;47.360;9.650;2023-03-23T11:40:20;18.40;73.10
46378;DHT22;32083;47.360;9.650;2023-03-23T11:43:01;18.50;73.60
46378;DHT22;32083;47.360;9.650;2023-03-23T11:45:40;18.50;72.10
46378;DHT22;32083;47.360;9.650;2023-03-23T11:48:31;18.50;71.10
46378;DHT22;32083;47.360;9.650;2023-03-23T11:51:11;18.60;74.00
46378;DHT22;32083;47.360;9.650;2023-03-23T11:56:24;18.70;71.30
46378;DHT22;32083;47.360;9.650;2023-03-23T11:58:55;18.70;70.10
46378;DHT22;32083;47.360;9.650;2023-03-23T12:09:35;19.20;70.30
46378;DHT22;32083;47.360;9.650;2023-03-23T12:12:25;19.20;70.60
46378;DHT22;32083;47.360;9.650;2023-03-23T12:25:49;19.60;68.20
46378;DHT22;32083;47.360;9.650;2023-03-23T12:28:59;19.60;67.60
46378;DHT22;32083;47.360;9.650;2023-03-23T12:39:47;19.80;69.30
46378;DHT22;32083;47.360;9.650;2023-03-23T12:42:26;19.70;71.00
46378;DHT22;32083;47.360;9.650;2023-03-23T12:47:37;19.40;72.00
46378;DHT22;32083;47.360;9.650;2023-03-23T12:50:26;19.50;73.90
46378;DHT22;32083;47.360;9.650;2023-03-23T12:53:20;19.50;73.00
46378;DHT22;32083;47.360;9.650;2023-03-23T12:58:44;19.50;74.90
46378;DHT22;32083;47.360;9.650;2023-03-23T13:01:17;19.30;74.40
46378;DHT22;32083;47.360;9.650;2023-03-23T13:04:10;19.10;74.50
46378;DHT22;32083;47.360;9.650;2023-03-23T13:06:42;19.10;76.40
46378;DHT22;32083;47.360;9.650;2023-03-23T13:11:49;19.20;75.60
46378;DHT22;32083;47.360;9.650;2023-03-23T13:17:24;19.00;76.90
46378;DHT22;32083;47.360;9.650;2023-03-23T13:23:14;19.00;74.50
46378;DHT22;32083;47.360;9.650;2023-03-23T13:28:21;19.20;74.20
46378;DHT22;32083;47.360;9.650;2023-03-23T13:33:35;19.30;72.30
46378;DHT22;32083;47.360;9.650;2023-03-23T13:36:12;19.10;71.80
46378;DHT22;32083;47.360;9.650;2023-03-23T13:38:44;19.30;74.10
46378;DHT22;32083;47.360;9.650;2023-03-23T13:41:14;19.50;75.70
46378;DHT22;32083;47.360;9.650;2023-03-23T13:43:42;19.60;74.00
46378;DHT22;32083;47.360;9.650;2023-03-23T13:48:47;19.40;73.10
46378;DHT22;32083;47.360;9.650;2023-03-23T13:54:13;19.30;73.10
46378;DHT22;32083;47.360;9.650;2023-03-23T13:56:47;19.10;71.50
46378;DHT22;32083;47.360;9.650;2023-03-23T13:59:15;19.10;73.90
46378;DHT22;32083;47.360;9.650;2023-03-23T14:01:42;19.00;72.20
46378;DHT22;32083;47.360;9.650;2023-03-23T14:04:15;18.80;74.40
46378;DHT22;32083;47.360;9.650;2023-03-23T14:06:42;18.80;74.80
46378;DHT22;32083;47.360;9.650;2023-03-23T14:09:39;18.80;74.80
46378;DHT22;32083;47.360;9.650;2023-03-23T14:12:15;18.80;74.90
46378;DHT22;32083;47.360;9.650;2023-03-23T14:14:45;18.80;74.30
46378;DHT22;32083;47.360;9.650;2023-03-23T14:17:26;18.90;75.90
46378;DHT22;32083;47.360;9.650;2023-03-23T14:19:55;18.90;75.40
46378;DHT22;32083;47.360;9.650;2023-03-23T14:22:28;18.80;75.60
46378;DHT22;32083;47.360;9.650;2023-03-23T14:25:08;18.80;76.90
46378;DHT22;32083;47.360;9.650;2023-03-23T14:27:35;18.60;77.30
46378;DHT22;32083;47.360;9.650;2023-03-23T14:30:13;18.60;77.30
46378;DHT22;32083;47.360;9.650;2023-03-23T14:32:40;18.60;77.00
46378;DHT22;32083;47.360;9.650;2023-03-23T14:35:26;18.50;77.00
46378;DHT22;32083;47.360;9.650;2023-03-23T14:37:56;18.50;76.50
46378;DHT22;32083;47.360;9.650;2023-03-23T14:40:22;18.40;76.80
46378;DHT22;32083;47.360;9.650;2023-03-23T14:42:51;18.50;76.80
46378;DHT22;32083;47.360;9.650;2023-03-23T14:45:21;18.40;76.90
46378;DHT22;32083;47.360;9.650;2023-03-23T14:47:57;18.30;75.60
46378;DHT22;32083;47.360;9.650;2023-03-23T14:50:59;18.20;74.40
46378;DHT22;32083;47.360;9.650;2023-03-23T14:53:38;18.10;75.30
46378;DHT22;32083;47.360;9.650;2023-03-23T14:56:13;18.20;75.60
46378;DHT22;32083;47.360;9.650;2023-03-23T14:58:50;18.20;75.40
46378;DHT22;32083;47.360;9.650;2023-03-23T15:01:22;18.20;75.00
46378;DHT22;32083;47.360;9.650;2023-03-23T15:04:06;18.20;76.80
46378;DHT22;32083;47.360;9.650;2023-03-23T15:06:35;18.10;75.40
46378;DHT22;32083;47.360;9.650;2023-03-23T15:09:07;18.10;76.00
46378;DHT22;32083;47.360;9.650;2023-03-23T15:11:37;18.00;75.30
46378;DHT22;32083;47.360;9.650;2023-03-23T15:14:20;18.00;75.10
46378;DHT22;32083;47.360;9.650;2023-03-23T15:16:52;18.10;75.80
46378;DHT22;32083;47.360;9.650;2023-03-23T15:19:31;18.20;77.10
46378;DHT22;32083;47.360;9.650;2023-03-23T15:24:44;18.20;77.30
46378;DHT22;32083;47.360;9.650;2023-03-23T15:29:55;18.10;79.00
46378;DHT22;32083;47.360;9.650;2023-03-23T15:32:28;18.10;79.20
46378;DHT22;32083;47.360;9.650;2023-03-23T15:34:56;18.10;79.40
46378;DHT22;32083;47.360;9.650;2023-03-23T15:37:29;17.90;77.40
46378;DHT22;32083;47.360;9.650;2023-03-23T15:39:59;17.90;78.30
46378;DHT22;32083;47.360;9.650;2023-03-23T15:42:27;17.90;76.90
46378;DHT22;32083;47.360;9.650;2023-03-23T15:47:34;17.80;78.30
46378;DHT22;32083;47.360;9.650;2023-03-23T15:52:51;17.70;78.60
46378;DHT22;32083;47.360;9.650;2023-03-23T15:55:29;17.70;79.60
46378;DHT22;32083;47.360;9.650;2023-03-23T15:58:01;17.70;79.50
46378;DHT22;32083;47.360;9.650;2023-03-23T16:00:30;17.70;79.50
46378;DHT22;32083;47.360;9.650;2023-03-23T16:03:03;17.70;79.40
46378;DHT22;32083;47.360;9.650;2023-03-23T16:05:29;17.60;80.00
46378;DHT22;32083;47.360;9.650;2023-03-23T16:07:56;17.60;80.70
46378;DHT22;32083;47.360;9.650;2023-03-23T16:10:24;17.50;82.10
46378;DHT22;32083;47.360;9.650;2023-03-23T16:12:50;17.20;83.20
46378;DHT22;32083;47.360;9.650;2023-03-23T16:15:17;17.20;83.20
46378;DHT22;32083;47.360;9.650;2023-03-23T16:17:44;17.00;84.60
46378;DHT22;32083;47.360;9.650;2023-03-23T16:20:15;17.00;84.60
46378;DHT22;32083;47.360;9.650;2023-03-23T16:22:42;16.90;84.40
46378;DHT22;32083;47.360;9.650;2023-03-23T16:25:09;16.90;84.50
46378;DHT22;32083;47.360;9.650;2023-03-23T16:27:37;16.90;85.40
46378;DHT22;32083;47.360;9.650;2023-03-23T16:30:22;16.80;86.90
46378;DHT22;32083;47.360;9.650;2023-03-23T16:32:48;16.80;88.40
46378;DHT22;32083;47.360;9.650;2023-03-23T16:35:15;16.70;88.40
46378;DHT22;32083;47.360;9.650;2023-03-23T16:37:53;16.60;88.60
46378;DHT22;32083;47.360;9.650;2023-03-23T16:40:20;16.60;88.90
46378;DHT22;32083;47.360;9.650;2023-03-23T16:42:46;16.50;89.50
46378;DHT22;32083;47.360;9.650;2023-03-23T16:45:14;16.60;88.50
46378;DHT22;32083;47.360;9.650;2023-03-23T16:47:40;16.50;87.80
46378;DHT22;32083;47.360;9.650;2023-03-23T16:50:09;16.50;87.90
46378;DHT22;32083;47.360;9.650;2023-03-23T16:52:39;16.50;88.10
46378;DHT22;32083;47.360;9.650;2023-03-23T16:55:07;16.50;88.10
46378;DHT22;32083;47.360;9.650;2023-03-23T16:57:34;16.50;88.00
46378;DHT22;32083;47.360;9.650;2023-03-23T17:00:04;16.40;87.70
46378;DHT22;32083;47.360;9.650;2023-03-23T17:02:31;16.40;87.90
46378;DHT22;32083;47.360;9.650;2023-03-23T17:04:57;16.40;87.70
46378;DHT22;32083;47.360;9.650;2023-03-23T17:07:24;16.40;87.30
46378;DHT22;32083;47.360;9.650;2023-03-23T17:09:50;16.40;87.80
46378;DHT22;32083;47.360;9.650;2023-03-23T17:12:16;16.40;88.10
46378;DHT22;32083;47.360;9.650;2023-03-23T17:14:42;16.40;88.20
46378;DHT22;32083;47.360;9.650;2023-03-23T17:17:08;16.40;88.50
46378;DHT22;32083;47.360;9.650;2023-03-23T17:19:34;16.30;88.60
46378;DHT22;32083;47.360;9.650;2023-03-23T17:22:00;16.40;88.70
46378;DHT22;32083;47.360;9.650;2023-03-23T17:24:26;16.40;89.20
46378;DHT22;32083;47.360;9.650;2023-03-23T17:26:53;16.40;88.80
46378;DHT22;32083;47.360;9.650;2023-03-23T17:29:19;16.40;89.10
46378;DHT22;32083;47.360;9.650;2023-03-23T17:31:47;16.40;89.80
46378;DHT22;32083;47.360;9.650;2023-03-23T17:34:13;16.40;90.60
46378;DHT22;32083;47.360;9.650;2023-03-23T17:36:39;16.40;91.30
46378;DHT22;32083;47.360;9.650;2023-03-23T17:39:05;16.30;91.80
46378;DHT22;32083;47.360;9.650;2023-03-23T17:41:32;16.30;92.00
46378;DHT22;32083;47.360;9.650;2023-03-23T17:43:58;16.30;92.50
46378;DHT22;32083;47.360;9.650;2023-03-23T17:46:23;16.20;92.60
46378;DHT22;32083;47.360;9.650;2023-03-23T17:48:50;16.20;92.90
46378;DHT22;32083;47.360;9.650;2023-03-23T17:51:16;16.20;92.80
46378;DHT22;32083;47.360;9.650;2023-03-23T17:53:42;16.10;92.90
46378;DHT22;32083;47.360;9.650;2023-03-23T17:56:08;16.10;92.90
46378;DHT22;32083;47.360;9.650;2023-03-23T17:58:34;16.10;93.40